Time;durP1;ratioP1;P1;durP2;ratioP2;P2;SDS_P1;SDS_P2;PMS_P1;PMS_P2;Temp;Humidity;BMP_temperature;BMP_pressure;BME280_temperature;BME280_humidity;BME280_pressure;Samples;Min_cycle;Max_cycle;Signal;HPM_P1;HPM_P2
2022/06/21 00:00:52;;;;;;;6.90;1.52;;;27.30;99.90;;;;;;5001766;28;20117;-62
2022/06/21 00:03:21;;;;;;;6.97;1.33;;;27.30;99.90;;;;;;5005401;28;20050;-65
2022/06/21 00:05:49;;;;;;;5.88;1.50;;;27.40;99.90;;;;;;4992599;28;20476;-59
2022/06/21 00:08:25;;;;;;;4.38;1.55;;;27.30;99.90;;;;;;4992047;28;20030;-57
2022/06/21 00:10:52;;;;;;;4.50;1.10;;;27.30;99.90;;;;;;4992598;28;20388;-58
2022/06/21 00:13:23;;;;;;;6.75;1.52;;;27.40;99.90;;;;;;4991324;28;20045;-60
2022/06/21 00:15:53;;;;;;;7.93;1.17;;;27.30;99.90;;;;;;4988882;28;20030;-58
2022/06/21 00:18:21;;;;;;;5.72;1.58;;;27.40;99.90;;;;;;4996175;28;20112;-64
2022/06/21 00:20:48;;;;;;;3.17;1.27;;;27.40;99.90;;;;;;4994648;28;20041;-58
2022/06/21 00:23:17;;;;;;;9.70;1.67;;;27.40;99.90;;;;;;4995590;28;20485;-60
2022/06/21 00:25:46;;;;;;;4.90;1.65;;;27.40;99.90;;;;;;4997069;28;20031;-65
2022/06/21 00:28:13;;;;;;;5.57;1.45;;;27.40;99.90;;;;;;4992211;28;20105;-65
2022/06/21 00:30:42;;;;;;;6.20;1.08;;;27.40;99.90;;;;;;4991402;28;20057;-65
2022/06/21 00:33:12;;;;;;;8.68;1.58;;;27.30;99.90;;;;;;4994084;28;20046;-65
2022/06/21 00:35:41;;;;;;;9.88;2.03;;;27.30;99.90;;;;;;4990892;28;20034;-64
2022/06/21 00:38:12;;;;;;;5.88;1.40;;;27.30;99.90;;;;;;4989101;28;20117;-63
2022/06/21 00:40:39;;;;;;;3.42;1.10;;;27.40;99.90;;;;;;4991601;28;20105;-64
2022/06/21 00:43:22;;;;;;;4.30;1.67;;;27.40;99.90;;;;;;4993904;28;20036;-63
2022/06/21 00:45:49;;;;;;;6.95;1.38;;;27.40;99.90;;;;;;4977799;28;20057;-63
2022/06/21 00:48:34;;;;;;;5.78;1.42;;;27.30;99.90;;;;;;4994912;28;20030;-66
2022/06/21 00:51:14;;;;;;;4.15;1.70;;;27.40;99.90;;;;;;4998249;28;20073;-64
2022/06/21 00:53:50;;;;;;;3.42;1.33;;;27.40;99.90;;;;;;4984882;28;20048;-63
2022/06/21 00:56:25;;;;;;;6.80;1.40;;;27.40;99.90;;;;;;5000864;28;20496;-62
2022/06/21 00:58:51;;;;;;;2.95;1.13;;;27.40;99.90;;;;;;4985849;28;20055;-68
2022/06/21 01:01:26;;;;;;;5.88;1.13;;;27.40;99.90;;;;;;4990195;28;20057;-63
2022/06/21 01:04:32;;;;;;;3.88;0.82;;;27.40;99.90;;;;;;4993502;28;20030;-61
2022/06/21 01:07:00;;;;;;;;;;;27.40;99.90;;;;;;4982136;28;20018;-60
2022/06/21 01:09:36;;;;;;;10.10;1.90;;;27.30;99.90;;;;;;4999625;28;20002;-57
2022/06/21 01:12:16;;;;;;;10.52;1.77;;;27.40;99.90;;;;;;4991780;28;20030;-57
2022/06/21 01:14:52;;;;;;;16.65;2.33;;;27.40;99.90;;;;;;4990727;28;20484;-57
2022/06/21 01:17:19;;;;;;;9.05;1.50;;;27.40;99.90;;;;;;4982504;28;20038;-57
2022/06/21 01:19:49;;;;;;;7.45;1.42;;;27.30;99.90;;;;;;4990502;28;21121;-57
2022/06/21 01:22:29;;;;;;;7.43;1.80;;;27.30;99.90;;;;;;4991023;28;20074;-56
2022/06/21 01:25:11;;;;;;;4.70;1.42;;;27.30;99.90;;;;;;4990919;28;20492;-56
2022/06/21 01:27:38;;;;;;;3.92;1.50;;;27.30;99.90;;;;;;4991043;28;20034;-56
2022/06/21 01:30:06;;;;;;;8.27;1.90;;;27.30;99.90;;;;;;4991033;28;20484;-56
2022/06/21 01:32:32;;;;;;;10.45;2.03;;;27.30;99.90;;;;;;4989569;28;20303;-56
2022/06/21 01:34:59;;;;;;;12.45;2.00;;;27.30;99.90;;;;;;4991943;28;20022;-57
2022/06/21 01:37:30;;;;;;;4.90;1.30;;;27.30;99.90;;;;;;4993994;28;20030;-58
2022/06/21 01:40:07;;;;;;;5.97;1.67;;;27.20;99.90;;;;;;4991374;28;20026;-57
2022/06/21 01:42:38;;;;;;;3.73;0.97;;;27.20;99.90;;;;;;4992152;28;20031;-57
2022/06/21 01:45:09;;;;;;;7.63;1.90;;;27.20;99.90;;;;;;4994197;28;20106;-59
2022/06/21 01:48:00;;;;;;;6.03;1.55;;;27.10;99.90;;;;;;4995241;28;20027;-57
2022/06/21 01:50:26;;;;;;;5.93;1.88;;;27.10;99.90;;;;;;4994600;28;20026;-59
2022/06/21 01:52:54;;;;;;;3.45;1.20;;;27.10;99.90;;;;;;4994913;28;20041;-58
2022/06/21 01:55:42;;;;;;;7.30;1.70;;;27.10;99.90;;;;;;4995050;28;20113;-57
2022/06/21 01:58:13;;;;;;;6.93;1.70;;;27.10;99.90;;;;;;4994970;28;20538;-57
2022/06/21 02:00:44;;;;;;;4.85;1.65;;;27.00;99.90;;;;;;5011307;23;20046;-49
2022/06/21 02:03:15;;;;;;;3.63;1.08;;;27.00;99.90;;;;;;4994869;28;20109;-49
2022/06/21 02:05:49;;;;;;;4.13;1.10;;;27.00;99.90;;;;;;4994815;28;20110;-49
2022/06/21 02:08:20;;;;;;;6.45;1.42;;;27.00;99.90;;;;;;4994826;28;20455;-49
2022/06/21 02:10:55;;;;;;;4.30;1.00;;;27.00;99.90;;;;;;4994741;28;20065;-50
2022/06/21 02:13:25;;;;;;;9.27;1.45;;;27.00;99.90;;;;;;4994632;28;20034;-49
2022/06/21 02:16:04;;;;;;;7.28;1.42;;;27.00;99.90;;;;;;4994711;28;20030;-49
2022/06/21 02:18:33;;;;;;;3.63;0.98;;;27.00;99.90;;;;;;4994726;28;20030;-49
2022/06/21 02:21:16;;;;;;;5.75;1.25;;;27.00;99.90;;;;;;4994417;28;20022;-49
2022/06/21 02:23:42;;;;;;;8.00;1.80;;;27.00;99.90;;;;;;4994313;28;20038;-49
2022/06/21 02:26:10;;;;;;;7.22;1.67;;;27.00;99.90;;;;;;4994371;28;20022;-49
2022/06/21 02:28:37;;;;;;;8.25;1.60;;;26.90;99.90;;;;;;4994391;28;20058;-49
2022/06/21 02:31:02;;;;;;;12.70;1.92;;;26.90;99.90;;;;;;4994150;28;20097;-49
2022/06/21 02:33:32;;;;;;;9.07;1.83;;;26.90;99.90;;;;;;4994243;28;20201;-49
2022/06/21 02:36:00;;;;;;;10.07;2.35;;;26.80;99.90;;;;;;4994568;28;20101;-49
2022/06/21 02:38:47;;;;;;;7.25;2.15;;;26.80;99.90;;;;;;4994272;28;20487;-49
2022/06/21 02:41:41;;;;;;;8.00;1.63;;;26.80;99.90;;;;;;4993989;28;20080;-49
2022/06/21 02:44:37;;;;;;;6.03;1.85;;;26.80;99.90;;;;;;4991864;28;20049;-49
2022/06/21 02:47:12;;;;;;;8.60;1.73;;;26.70;99.90;;;;;;4990919;28;20567;-49
2022/06/21 02:49:59;;;;;;;13.00;2.20;;;26.70;99.90;;;;;;4994052;28;20030;-49
2022/06/21 02:52:30;;;;;;;8.82;1.90;;;26.70;99.90;;;;;;4993863;28;20444;-49
2022/06/21 02:55:29;;;;;;;10.40;1.95;;;26.70;99.90;;;;;;4994073;28;20468;-49
2022/06/21 02:58:15;;;;;;;8.77;1.60;;;26.60;99.90;;;;;;4994032;28;20018;-49
2022/06/21 03:00:42;;;;;;;8.98;2.05;;;26.60;99.90;;;;;;5009958;23;20050;-58
2022/06/21 03:03:18;;;;;;;9.32;2.00;;;26.50;99.90;;;;;;4992536;28;20026;-57
2022/06/21 03:05:46;;;;;;;8.52;1.80;;;26.50;99.90;;;;;;4992626;28;20480;-57
2022/06/21 03:08:13;;;;;;;6.57;1.92;;;26.50;99.90;;;;;;4992486;28;20035;-57
2022/06/21 03:10:45;;;;;;;11.35;2.50;;;26.50;99.90;;;;;;4993605;28;20031;-57
2022/06/21 03:13:22;;;;;;;9.70;2.25;;;26.40;99.90;;;;;;4992266;28;20035;-56
2022/06/21 03:15:55;;;;;;;10.70;1.95;;;26.40;99.90;;;;;;4993481;28;20030;-57
2022/06/21 03:18:25;;;;;;;8.88;2.53;;;26.40;99.90;;;;;;4993589;28;20038;-58
2022/06/21 03:20:53;;;;;;;14.27;2.40;;;26.40;99.90;;;;;;4993645;28;20435;-57
2022/06/21 03:23:20;;;;;;;22.70;3.92;;;26.40;99.90;;;;;;4993485;28;20025;-57
2022/06/21 03:25:53;;;;;;;12.18;2.10;;;26.30;99.90;;;;;;4993386;28;20034;-56
2022/06/21 03:28:36;;;;;;;8.95;1.95;;;26.30;99.90;;;;;;4993229;28;20122;-56
2022/06/21 03:31:10;;;;;;;11.13;2.33;;;26.30;99.90;;;;;;4993207;28;20030;-57
2022/06/21 03:33:38;;;;;;;10.20;2.20;;;26.30;99.90;;;;;;4993219;28;20444;-56
2022/06/21 03:36:08;;;;;;;14.38;2.15;;;26.30;99.90;;;;;;4993216;28;20472;-56
2022/06/21 03:38:36;;;;;;;10.43;2.05;;;26.30;99.90;;;;;;4993031;28;20077;-57
2022/06/21 03:44:07;;;;;;;10.38;2.15;;;26.30;99.90;;;;;;4981062;28;20050;-56
2022/06/21 03:46:46;;;;;;;7.65;1.80;;;26.30;99.90;;;;;;4993098;28;20014;-57
2022/06/21 03:49:42;;;;;;;8.90;1.85;;;26.30;99.90;;;;;;4991765;28;20042;-58
2022/06/21 03:52:13;;;;;;;9.63;2.72;;;26.30;99.90;;;;;;4992691;28;20443;-56
2022/06/21 03:54:47;;;;;;;6.00;1.85;;;26.30;99.90;;;;;;4992806;28;20097;-56
2022/06/21 03:57:30;;;;;;;11.93;1.80;;;26.30;99.90;;;;;;4991965;28;20018;-57
2022/06/21 03:59:58;;;;;;;13.43;1.90;;;26.30;99.90;;;;;;4993125;28;20062;-57
2022/06/21 04:02:34;;;;;;;9.00;2.33;;;26.30;99.90;;;;;;4991911;28;20069;-57
2022/06/21 04:05:03;;;;;;;6.10;2.03;;;26.30;99.90;;;;;;4992759;28;20022;-56
2022/06/21 04:07:35;;;;;;;11.73;2.40;;;26.30;99.90;;;;;;4992735;28;20057;-56
2022/06/21 04:10:20;;;;;;;21.02;3.42;;;26.30;99.90;;;;;;4991380;28;20030;-57
2022/06/21 04:12:58;;;;;;;12.85;3.10;;;26.30;99.90;;;;;;4992443;28;20038;-57
2022/06/21 04:16:07;;;;;;;8.63;2.15;;;26.20;99.90;;;;;;4992527;28;20022;-56
2022/06/21 04:18:56;;;;;;;10.52;2.97;;;26.20;99.90;;;;;;4989694;28;20523;-57
2022/06/21 04:21:45;;;;;;;13.68;2.80;;;26.20;99.90;;;;;;4991902;28;20066;-58
2022/06/21 04:24:23;;;;;;;8.18;2.20;;;26.20;99.90;;;;;;4989154;28;20045;-58
2022/06/21 04:26:56;;;;;;;11.68;2.75;;;26.20;99.90;;;;;;4992306;28;20022;-58
2022/06/21 04:29:38;;;;;;;13.38;3.03;;;26.20;99.90;;;;;;4992158;28;20031;-57
2022/06/21 04:32:18;;;;;;;8.48;2.80;;;26.20;99.90;;;;;;4992228;28;20035;-57
2022/06/21 04:34:49;;;;;;;9.20;2.20;;;26.10;99.90;;;;;;4992193;28;20080;-57
2022/06/21 04:37:41;;;;;;;10.90;3.33;;;26.10;99.90;;;;;;4992015;28;20476;-56
2022/06/21 04:40:15;;;;;;;8.70;1.83;;;26.20;99.90;;;;;;4992026;28;20039;-56
2022/06/21 04:42:55;;;;;;;8.32;1.90;;;26.20;99.90;;;;;;4991934;28;20480;-58
2022/06/21 04:45:29;;;;;;;8.73;1.90;;;26.20;99.90;;;;;;4991970;28;20488;-56
2022/06/21 04:47:55;;;;;;;9.05;2.60;;;26.10;99.90;;;;;;4991994;28;20091;-57
2022/06/21 04:50:31;;;;;;;15.90;3.05;;;26.10;99.90;;;;;;4991810;28;20042;-56
2022/06/21 04:53:17;;;;;;;12.85;2.83;;;26.10;99.90;;;;;;4990578;28;20122;-56
2022/06/21 04:56:03;;;;;;;9.80;2.40;;;26.10;99.90;;;;;;4991963;28;20025;-57
2022/06/21 04:58:30;;;;;;;12.80;2.65;;;26.10;99.90;;;;;;4992008;28;20045;-56
2022/06/21 05:00:57;;;;;;;8.57;1.90;;;26.10;99.90;;;;;;4991598;28;20413;-56
2022/06/21 05:03:42;;;;;;;7.82;1.95;;;26.10;99.90;;;;;;4991955;28;20287;-58
2022/06/21 05:06:11;;;;;;;7.60;1.88;;;26.10;99.90;;;;;;4991700;28;20039;-56
2022/06/21 05:08:39;;;;;;;13.18;2.65;;;26.10;99.90;;;;;;4993812;28;20073;-56
2022/06/21 05:11:05;;;;;;;11.95;2.25;;;26.00;99.90;;;;;;4995954;28;20018;-57
2022/06/21 05:13:36;;;;;;;13.77;2.40;;;26.10;99.90;;;;;;4995684;28;20043;-56
2022/06/21 05:16:09;;;;;;;8.20;2.15;;;26.10;99.90;;;;;;4995762;28;20126;-57
2022/06/21 05:18:40;;;;;;;12.45;2.38;;;26.10;99.90;;;;;;4995912;28;20026;-57
2022/06/21 05:21:31;;;;;;;8.95;2.03;;;26.00;99.90;;;;;;4995873;28;20031;-57
2022/06/21 05:23:57;;;;;;;15.02;3.05;;;26.00;99.90;;;;;;4995639;28;20097;-57
2022/06/21 05:26:34;;;;;;;11.43;2.35;;;26.00;99.90;;;;;;4995488;28;20038;-56
2022/06/21 05:29:30;;;;;;;9.32;2.08;;;26.00;99.90;;;;;;4995523;28;20431;-57
2022/06/21 05:32:00;;;;;;;16.53;2.57;;;26.00;99.90;;;;;;4984166;28;20042;-57
2022/06/21 05:34:32;;;;;;;11.20;2.40;;;26.00;99.90;;;;;;4995415;28;20078;-55
2022/06/21 05:37:20;;;;;;;13.27;2.72;;;26.00;99.90;;;;;;4995290;28;20026;-57
2022/06/21 05:39:49;;;;;;;16.20;3.10;;;25.90;99.90;;;;;;4995403;28;20379;-59
2022/06/21 05:42:18;;;;;;;11.68;2.95;;;25.90;99.90;;;;;;4993916;28;20439;-56
2022/06/21 05:44:49;;;;;;;11.07;2.20;;;26.00;99.90;;;;;;4995086;28;20460;-55
2022/06/21 05:47:24;;;;;;;11.88;2.50;;;26.00;99.90;;;;;;4995258;28;20031;-57
2022/06/21 05:49:51;;;;;;;11.23;2.40;;;26.00;99.90;;;;;;4995030;28;20045;-58
2022/06/21 05:52:23;;;;;;;10.65;2.67;;;26.00;99.90;;;;;;4995005;28;20030;-55
2022/06/21 05:55:02;;;;;;;11.00;4.70;;;25.90;99.90;;;;;;4995203;28;20030;-55
2022/06/21 05:57:54;;;;;;;15.35;6.63;;;25.90;99.90;;;;;;4994853;28;20041;-55
2022/06/21 06:00:26;;;;;;;15.68;6.53;;;26.00;99.90;;;;;;4993489;28;20133;-55
2022/06/21 06:02:58;;;;;;;12.63;3.75;;;25.90;99.90;;;;;;4994840;28;20026;-55
2022/06/21 06:05:31;;;;;;;12.13;3.53;;;25.90;99.90;;;;;;4994985;28;20113;-55
2022/06/21 06:08:10;;;;;;;15.65;5.00;;;26.00;99.90;;;;;;4994681;28;20030;-57
2022/06/21 06:10:38;;;;;;;8.68;2.67;;;26.00;99.90;;;;;;4994869;28;20031;-57
2022/06/21 06:13:26;;;;;;;10.98;3.38;;;26.00;99.90;;;;;;4994512;28;20068;-57
2022/06/21 06:15:55;;;;;;;9.88;2.55;;;26.00;99.90;;;;;;4994637;28;20051;-55
2022/06/21 06:18:43;;;;;;;10.27;2.33;;;26.00;99.90;;;;;;4994574;28;20539;-56
2022/06/21 06:21:34;;;;;;;10.10;2.78;;;26.00;99.90;;;;;;4992923;28;20037;-55
2022/06/21 06:24:34;;;;;;;8.13;2.65;;;26.00;99.90;;;;;;4994470;28;20041;-54
2022/06/21 06:27:01;;;;;;;21.23;8.30;;;26.00;99.90;;;;;;4993229;28;20023;-55
2022/06/21 06:29:36;;;;;;;14.95;4.45;;;26.00;99.90;;;;;;4993208;28;20399;-54
2022/06/21 06:32:16;;;;;;;9.68;4.70;;;26.00;99.90;;;;;;4993053;28;20049;-54
2022/06/21 06:34:46;;;;;;;17.08;6.32;;;26.00;99.90;;;;;;4994285;28;20031;-56
2022/06/21 06:37:31;;;;;;;23.25;7.00;;;26.00;99.90;;;;;;4994320;28;20144;-55
2022/06/21 06:39:59;;;;;;;23.10;9.73;;;26.00;99.90;;;;;;4994071;28;20499;-55
2022/06/21 06:42:26;;;;;;;;;;;26.00;99.90;;;;;;4994500;28;20035;-56
2022/06/21 06:45:03;;;;;;;17.08;7.97;;;26.00;99.90;;;;;;4994105;28;20275;-55
2022/06/21 06:47:36;;;;;;;16.20;8.43;;;26.00;99.90;;;;;;4994014;28;20028;-55
2022/06/21 06:50:16;;;;;;;26.17;5.75;;;26.00;99.90;;;;;;4993806;28;20030;-56
2022/06/21 06:52:55;;;;;;;12.05;4.43;;;26.00;99.90;;;;;;4993865;28;20043;-56
2022/06/21 06:55:50;;;;;;;12.82;4.07;;;26.00;99.90;;;;;;4993854;28;20550;-55
2022/06/21 06:58:45;;;;;;;7.80;2.65;;;26.00;99.90;;;;;;4993875;28;20033;-55
2022/06/21 07:01:22;;;;;;;13.13;6.20;;;26.00;99.90;;;;;;4985704;28;20050;-55
2022/06/21 07:03:54;;;;;;;10.43;3.38;;;26.00;99.90;;;;;;4993763;28;20030;-56
2022/06/21 07:06:43;;;;;;;17.02;6.43;;;26.00;99.90;;;;;;4993504;28;20037;-55
2022/06/21 07:09:27;;;;;;;12.10;5.20;;;26.00;99.90;;;;;;4993770;28;20026;-56
2022/06/21 07:12:08;;;;;;;15.07;5.53;;;26.00;99.90;;;;;;4993610;28;20026;-56
2022/06/21 07:14:35;;;;;;;10.50;4.38;;;26.00;99.90;;;;;;4992119;28;20030;-55
2022/06/21 07:17:18;;;;;;;11.03;4.07;;;26.00;99.90;;;;;;4993409;28;20023;-55
2022/06/21 07:19:45;;;;;;;9.15;3.67;;;26.00;99.90;;;;;;4993353;28;20038;-56
2022/06/21 07:22:24;;;;;;;18.25;3.72;;;26.00;99.90;;;;;;4993463;28;20114;-54
2022/06/21 07:25:13;;;;;;;14.63;4.38;;;26.00;99.90;;;;;;4993313;28;20041;-57
2022/06/21 07:27:44;;;;;;;14.05;4.43;;;26.00;99.90;;;;;;4993241;28;20046;-56
2022/06/21 07:30:12;;;;;;;10.63;3.28;;;26.00;99.90;;;;;;4993509;28;20061;-57
2022/06/21 07:32:54;;;;;;;17.98;3.72;;;26.00;99.90;;;;;;4991948;28;20130;-57
2022/06/21 07:35:50;;;;;;;13.05;3.15;;;26.00;99.90;;;;;;4992998;28;20038;-56
2022/06/21 07:38:37;;;;;;;18.30;5.00;;;26.00;99.90;;;;;;4993042;28;20094;-57
2022/06/21 07:41:25;;;;;;;;;;;26.00;99.90;;;;;;4993394;28;20070;-55
2022/06/21 07:43:56;;;;;;;16.85;3.20;;;26.00;99.90;;;;;;4992885;28;19956;-55
2022/06/21 07:46:31;;;;;;;13.50;2.95;;;26.00;99.90;;;;;;4992747;28;20037;-56
2022/06/21 07:49:22;;;;;;;11.07;2.65;;;26.00;99.90;;;;;;4992857;28;20100;-55
2022/06/21 07:52:11;;;;;;;12.20;2.70;;;26.00;99.90;;;;;;4992713;28;20034;-56
2022/06/21 07:54:45;;;;;;;16.63;2.88;;;26.10;99.90;;;;;;4992882;28;20037;-55
2022/06/21 07:57:17;;;;;;;9.13;1.92;;;26.10;99.90;;;;;;4992719;28;20026;-57
2022/06/21 07:59:49;;;;;;;10.43;2.70;;;26.00;99.90;;;;;;4992573;28;20046;-55
2022/06/21 08:07:58;;;;;;;7.43;2.17;;;26.00;99.90;;;;;;4992396;28;20420;-55
2022/06/21 08:10:30;;;;;;;10.07;2.20;;;26.00;99.90;;;;;;4992452;28;20031;-56
2022/06/21 08:12:56;;;;;;;11.65;2.22;;;26.10;99.90;;;;;;4992327;28;20065;-57
2022/06/21 08:15:27;;;;;;;9.45;2.38;;;26.00;99.90;;;;;;4992411;28;20058;-56
2022/06/21 08:17:57;;;;;;;9.85;2.33;;;26.10;99.90;;;;;;4992269;28;20453;-56
2022/06/21 08:20:25;;;;;;;11.30;2.72;;;26.00;99.90;;;;;;4992226;28;20447;-55
2022/06/21 08:23:05;;;;;;;10.10;2.17;;;26.00;99.90;;;;;;4992205;28;20044;-56
2022/06/21 08:25:50;;;;;;;8.35;2.20;;;26.00;99.90;;;;;;4992214;28;20341;-56
2022/06/21 08:28:28;;;;;;;13.55;2.67;;;26.00;99.90;;;;;;4991015;28;20094;-55
2022/06/21 08:31:00;;;;;;;14.25;1.80;;;26.00;99.90;;;;;;4992268;28;20022;-55
2022/06/21 08:33:34;;;;;;;10.82;2.60;;;25.90;99.90;;;;;;4991954;28;20358;-55
2022/06/21 08:36:06;;;;;;;6.45;2.15;;;26.00;99.90;;;;;;4991840;28;20480;-55
2022/06/21 08:38:42;;;;;;;14.88;2.67;;;25.90;99.90;;;;;;4991992;28;20034;-56
2022/06/21 08:41:54;;;;;;;10.65;2.28;;;26.00;99.90;;;;;;4991859;28;20034;-59
2022/06/21 08:44:43;;;;;;;7.40;2.38;;;26.00;99.90;;;;;;4991599;28;20041;-56
2022/06/21 08:47:36;;;;;;;9.02;2.40;;;26.00;99.90;;;;;;4991960;28;20488;-56
2022/06/21 08:50:28;;;;;;;7.40;2.45;;;26.00;99.90;;;;;;4991866;28;20081;-56
2022/06/21 08:53:19;;;;;;;6.70;3.55;;;26.00;99.90;;;;;;4991730;28;20038;-56
2022/06/21 08:56:12;;;;;;;9.00;2.83;;;26.00;99.90;;;;;;4991673;28;20033;-56
2022/06/21 08:59:05;;;;;;;9.27;3.08;;;26.10;99.90;;;;;;4991514;28;20096;-55
2022/06/21 09:01:42;;;;;;;6.47;2.63;;;26.10;99.90;;;;;;4990311;28;20089;-58
2022/06/21 09:04:26;;;;;;;8.98;2.45;;;26.10;99.90;;;;;;4991546;28;20046;-55
2022/06/21 09:07:12;;;;;;;13.45;3.80;;;26.10;99.90;;;;;;4991692;28;20137;-57
2022/06/21 09:10:06;;;;;;;11.25;3.83;;;26.10;99.90;;;;;;4991350;28;20109;-56
2022/06/21 09:12:46;;;;;;;12.50;4.43;;;26.10;99.90;;;;;;4991566;28;20034;-58
2022/06/21 09:15:30;;;;;;;11.32;3.97;;;26.10;99.90;;;;;;4991473;28;20026;-57
2022/06/21 09:18:14;;;;;;;21.38;8.50;;;26.10;99.90;;;;;;4991336;28;20069;-56
2022/06/21 09:20:56;;;;;;;10.00;4.55;;;26.10;99.90;;;;;;4991318;28;20058;-55
2022/06/21 09:23:42;;;;;;;8.55;3.88;;;26.00;99.90;;;;;;4991382;28;20464;-57
2022/06/21 09:26:17;;;;;;;9.55;3.47;;;26.10;99.90;;;;;;4990960;28;20081;-57
2022/06/21 09:28:51;;;;;;;12.15;2.72;;;26.00;99.90;;;;;;4991358;28;20080;-57
2022/06/21 09:31:59;;;;;;;15.60;3.53;;;26.00;99.90;;;;;;4991380;28;20030;-57
2022/06/21 09:34:28;;;;;;;10.02;2.33;;;25.90;99.90;;;;;;4988211;28;20046;-57
2022/06/21 09:37:04;;;;;;;11.00;2.80;;;25.90;99.90;;;;;;4991246;28;20395;-56
2022/06/21 09:39:35;;;;;;;13.45;2.67;;;25.90;99.90;;;;;;4991281;28;20035;-56
2022/06/21 09:42:19;;;;;;;11.68;2.30;;;25.80;99.90;;;;;;4991272;28;20023;-58
2022/06/21 09:45:05;;;;;;;11.25;2.63;;;25.70;99.90;;;;;;4989095;28;20030;-56
2022/06/21 09:47:41;;;;;;;9.50;2.70;;;25.70;99.90;;;;;;4990423;28;20027;-57
2022/06/21 09:50:09;;;;;;;8.52;2.33;;;25.70;99.90;;;;;;4989364;28;20264;-55
2022/06/21 09:53:03;;;;;;;7.20;2.00;;;25.60;99.90;;;;;;4983057;28;20517;-56
2022/06/21 09:56:00;;;;;;;11.98;2.75;;;25.60;99.90;;;;;;4989273;28;20026;-55
2022/06/21 09:58:44;;;;;;;8.13;2.28;;;25.60;99.90;;;;;;4992939;28;20026;-56
2022/06/21 10:01:14;;;;;;;7.30;2.30;;;25.60;99.90;;;;;;4988234;28;20065;-55
2022/06/21 10:04:02;;;;;;;7.20;2.80;;;25.70;99.90;;;;;;4975047;28;20093;-56
2022/06/21 10:06:46;;;;;;;15.52;5.65;;;25.60;99.90;;;;;;4973800;28;20440;-58
2022/06/21 10:09:37;;;;;;;15.52;4.63;;;25.60;99.90;;;;;;4978673;28;20023;-53
2022/06/21 10:12:36;;;;;;;12.25;3.53;;;25.60;99.90;;;;;;4992540;28;20026;-56
2022/06/21 10:15:20;;;;;;;11.15;2.78;;;25.60;99.90;;;;;;4991347;28;20038;-55
2022/06/21 10:18:15;;;;;;;9.98;2.58;;;25.60;99.90;;;;;;4984766;28;20022;-54
2022/06/21 10:21:02;;;;;;;7.07;2.17;;;25.60;99.90;;;;;;4992197;28;20539;-54
2022/06/21 10:23:51;;;;;;;19.58;4.38;;;25.60;99.90;;;;;;4992895;28;20026;-54
2022/06/21 10:26:35;;;;;;;13.23;3.97;;;25.60;99.90;;;;;;4992996;28;20106;-58
2022/06/21 10:29:22;;;;;;;37.88;3.95;;;25.60;99.90;;;;;;4984353;28;20492;-54
2022/06/21 10:32:06;;;;;;;;;;;25.60;99.90;;;;;;4986966;28;20061;-56
2022/06/21 10:34:35;;;;;;;8.35;2.30;;;25.70;99.90;;;;;;4989776;28;20273;-59
2022/06/21 10:37:29;;;;;;;8.60;2.58;;;25.70;99.90;;;;;;4989104;28;20050;-57
2022/06/21 10:40:36;;;;;;;13.25;2.35;;;25.70;99.90;;;;;;4988663;28;20041;-54
2022/06/21 10:43:05;;;;;;;12.38;2.47;;;25.80;99.90;;;;;;4988920;28;20109;-57
2022/06/21 10:45:49;;;;;;;9.05;2.33;;;25.80;99.90;;;;;;4987680;28;20045;-57
2022/06/21 10:48:18;;;;;;;17.95;3.90;;;25.80;99.90;;;;;;4990188;28;20111;-56
2022/06/21 10:50:51;;;;;;;16.33;4.95;;;25.80;99.90;;;;;;4989592;28;20037;-58
2022/06/21 10:53:36;;;;;;;14.52;4.07;;;25.80;99.90;;;;;;4987867;28;20038;-56
2022/06/21 10:59:14;;;;;;;10.60;2.72;;;25.80;99.90;;;;;;4987876;28;20547;-53
2022/06/21 11:02:00;;;;;;;15.73;3.55;;;25.90;99.90;;;;;;4990218;28;20525;-58
2022/06/21 11:05:16;;;;;;;19.25;3.50;;;25.90;99.90;;;;;;4989461;28;20027;-62
2022/06/21 11:07:58;;;;;;;11.38;3.38;;;26.00;99.90;;;;;;4945265;29;20027;-60
2022/06/21 11:10:31;;;;;;;20.13;9.73;;;26.00;99.90;;;;;;4945501;29;20031;-58
2022/06/21 11:13:05;;;;;;;22.40;7.68;;;26.00;99.90;;;;;;4975681;28;20054;-58
2022/06/21 11:16:06;;;;;;;20.20;7.05;;;26.00;99.90;;;;;;4990315;28;20487;-58
2022/06/21 11:18:49;;;;;;;15.70;6.20;;;26.10;99.90;;;;;;4988882;28;20396;-58
2022/06/21 11:21:40;;;;;;;15.32;5.20;;;26.10;99.90;;;;;;4989240;28;20037;-58
2022/06/21 11:24:21;;;;;;;15.52;6.25;;;26.20;99.90;;;;;;4984572;28;20022;-57
2022/06/21 11:27:14;;;;;;;14.35;4.60;;;26.20;99.90;;;;;;4985689;28;20117;-59
2022/06/21 11:29:56;;;;;;;12.75;3.47;;;26.20;99.90;;;;;;4990005;28;20413;-59
2022/06/21 11:32:43;;;;;;;14.70;4.05;;;26.30;99.90;;;;;;4984890;28;20412;-60
2022/06/21 11:35:33;;;;;;;10.48;2.80;;;26.30;99.90;;;;;;4988627;28;20053;-60
2022/06/21 11:38:56;;;;;;;8.27;3.15;;;26.30;99.90;;;;;;4987800;28;20034;-61
2022/06/21 11:44:45;;;;;;;14.50;3.10;;;26.30;99.90;;;;;;4982512;28;20038;-59
2022/06/21 11:47:23;;;;;;;13.00;2.47;;;26.30;99.90;;;;;;4986542;28;20451;-56
2022/06/21 11:50:16;;;;;;;8.80;2.33;;;26.30;99.90;;;;;;4988409;28;20535;-56
2022/06/21 11:52:54;;;;;;;12.40;2.67;;;26.40;99.90;;;;;;4988548;28;20388;-58
2022/06/21 11:55:44;;;;;;;6.68;2.15;;;26.40;99.90;;;;;;4989578;28;20026;-58
2022/06/21 11:58:25;;;;;;;13.38;3.28;;;26.40;99.90;;;;;;4987644;28;20030;-55
2022/06/21 12:01:01;;;;;;;11.00;3.05;;;26.40;99.90;;;;;;4985992;28;20061;-58
2022/06/21 12:03:37;;;;;;;14.45;3.13;;;26.40;99.90;;;;;;4987522;28;20034;-60
2022/06/21 12:06:12;;;;;;;9.23;3.28;;;26.30;99.90;;;;;;4987045;28;20121;-58
2022/06/21 12:08:56;;;;;;;12.95;3.10;;;26.30;99.90;;;;;;4986718;28;20492;-58
2022/06/21 12:11:34;;;;;;;16.60;5.60;;;26.30;99.90;;;;;;4987767;28;20015;-61
2022/06/21 12:14:24;;;;;;;19.17;7.25;;;26.30;99.90;;;;;;4984631;28;20113;-59
2022/06/21 12:17:11;;;;;;;17.38;6.95;;;26.30;99.90;;;;;;4987481;28;20023;-59
2022/06/21 12:19:41;;;;;;;24.42;7.30;;;26.30;99.90;;;;;;4987545;28;20030;-62
2022/06/21 12:22:28;;;;;;;17.45;8.43;;;26.30;99.90;;;;;;4987870;28;20034;-60
2022/06/21 12:24:55;;;;;;;;;;;26.30;99.90;;;;;;4989011;28;20022;-54
2022/06/21 12:27:22;;;;;;;79.90;41.40;;;26.30;99.90;;;;;;4989184;28;19976;-53
2022/06/21 12:29:47;;;;;;;45.30;21.67;;;26.30;99.90;;;;;;4989525;28;20026;-53
2022/06/21 12:32:20;;;;;;;20.98;10.15;;;26.30;99.90;;;;;;4989490;28;20046;-51
2022/06/21 12:35:02;;;;;;;15.65;6.68;;;26.20;99.90;;;;;;4989132;28;20026;-51
2022/06/21 12:37:36;;;;;;;14.45;4.97;;;26.20;99.90;;;;;;4989461;28;20030;-52
2022/06/21 12:40:33;;;;;;;18.52;4.97;;;26.10;99.90;;;;;;4989162;28;20431;-50
2022/06/21 12:43:10;;;;;;;15.25;3.35;;;26.10;99.90;;;;;;4985908;28;20030;-50
2022/06/21 12:45:54;;;;;;;10.48;3.30;;;26.20;99.90;;;;;;4987853;28;20022;-53
2022/06/21 12:48:57;;;;;;;7.35;2.30;;;26.20;99.90;;;;;;4988896;28;20069;-53
2022/06/21 12:51:41;;;;;;;10.98;2.20;;;26.20;99.90;;;;;;4989298;28;20033;-51
2022/06/21 12:54:35;;;;;;;8.23;2.58;;;26.20;99.90;;;;;;4988347;28;20041;-52
2022/06/21 12:57:30;;;;;;;14.88;2.55;;;26.20;99.90;;;;;;4983563;28;20029;-54
2022/06/21 13:00:20;;;;;;;16.17;2.67;;;26.30;99.90;;;;;;4987122;28;20090;-53
2022/06/21 13:02:56;;;;;;;12.15;2.50;;;26.20;99.90;;;;;;4988946;28;20049;-51
2022/06/21 13:05:28;;;;;;;13.35;2.45;;;26.20;99.90;;;;;;4988844;28;20060;-49
2022/06/21 13:08:36;;;;;;;12.15;2.38;;;26.20;99.90;;;;;;4988317;28;20033;-51
2022/06/21 13:11:14;;;;;;;13.73;2.60;;;26.30;99.90;;;;;;4987183;28;20030;-52
2022/06/21 13:13:58;;;;;;;13.82;1.80;;;26.20;99.90;;;;;;4986363;28;20082;-53
2022/06/21 13:16:38;;;;;;;12.80;1.98;;;26.30;99.90;;;;;;4988005;28;20236;-52
2022/06/21 13:19:30;;;;;;;8.13;2.45;;;26.20;99.90;;;;;;4985364;28;20061;-53
2022/06/21 13:22:21;;;;;;;13.20;4.75;;;26.30;99.90;;;;;;4986035;28;20069;-54
2022/06/21 13:24:53;;;;;;;15.93;3.72;;;26.30;99.90;;;;;;4988924;28;20105;-51
2022/06/21 13:27:40;;;;;;;19.05;5.68;;;26.30;99.90;;;;;;4986573;28;20030;-51
2022/06/21 13:30:34;;;;;;;17.10;4.00;;;26.30;99.90;;;;;;4985489;28;20092;-50
2022/06/21 13:33:26;;;;;;;15.07;3.10;;;26.30;99.90;;;;;;4992225;28;20574;-51
2022/06/21 13:36:06;;;;;;;20.70;5.47;;;26.30;99.90;;;;;;4983386;28;20047;-57
2022/06/21 13:38:38;;;;;;;15.95;2.42;;;26.30;99.90;;;;;;4992585;28;20428;-57
2022/06/21 13:41:04;;;;;;;10.75;3.03;;;26.30;99.90;;;;;;4990473;28;20043;-59
2022/06/21 13:43:38;;;;;;;12.63;2.58;;;26.40;99.90;;;;;;4992272;28;20026;-55
2022/06/21 13:46:26;;;;;;;13.55;3.45;;;26.40;99.90;;;;;;4991741;28;20062;-56
2022/06/21 13:49:02;;;;;;;11.45;2.50;;;26.40;99.90;;;;;;4989225;28;20050;-59
2022/06/21 13:51:45;;;;;;;14.82;3.03;;;26.40;99.90;;;;;;4992295;28;20380;-57
2022/06/21 13:54:13;;;;;;;14.05;3.55;;;26.50;99.90;;;;;;4992583;28;20046;-57
2022/06/21 13:56:42;;;;;;;12.00;2.58;;;26.50;99.90;;;;;;4991654;28;20499;-58